createdAt,value
2018-10-19T00:00:13.625Z,27.33
2018-10-19T00:02:49.903Z,29.47
2018-10-19T00:05:26.776Z,29.43
2018-10-19T00:08:03.557Z,29.50
2018-10-19T00:10:33.737Z,24.70
2018-10-19T00:13:03.396Z,26.33
2018-10-19T00:16:15.346Z,28.97
2018-10-19T00:18:45.905Z,22.73
2018-10-19T00:21:15.457Z,23.63
2018-10-19T00:23:56.575Z,26.10
2018-10-19T00:26:26.221Z,21.93
2018-10-19T00:28:55.947Z,27.77
2018-10-19T00:31:31.232Z,22.80
2018-10-19T00:34:42.744Z,26.90
2018-10-19T00:37:13.332Z,28.57
2018-10-19T00:39:49.488Z,23.20
2018-10-19T00:42:19.042Z,23.73
2018-10-19T00:44:51.398Z,28.00
2018-10-19T00:47:21.925Z,26.17
2018-10-19T00:49:58.835Z,42.17
2018-10-19T00:52:28.348Z,37.73
2018-10-19T00:55:04.551Z,43.50
2018-10-19T00:57:34.080Z,31.60
2018-10-19T01:00:03.667Z,28.20
2018-10-19T01:02:34.047Z,24.93
2018-10-19T01:05:04.123Z,25.63
2018-10-19T01:07:33.542Z,23.43
2018-10-19T01:10:04.350Z,19.97
2018-10-19T01:12:33.688Z,19.03
2018-10-19T01:15:03.185Z,24.00
2018-10-19T01:17:39.425Z,20.57
2018-10-19T01:20:09.707Z,20.83
2018-10-19T01:22:39.455Z,20.00
2018-10-19T01:25:09.311Z,17.13
2018-10-19T01:27:40.824Z,17.63
2018-10-19T01:30:12.744Z,19.17
2018-10-19T01:32:44.189Z,17.27
2018-10-19T01:35:13.923Z,17.17
2018-10-19T01:38:05.648Z,22.07
2018-10-19T01:40:52.662Z,14.90
2018-10-19T01:43:23.165Z,17.27
2018-10-19T01:45:56.312Z,18.20
2018-10-19T01:48:26.371Z,15.17
2018-10-19T01:50:55.972Z,12.10
2018-10-19T01:53:26.134Z,17.70
2018-10-19T01:55:56.143Z,18.90
2018-10-19T01:58:34.394Z,15.73
2018-10-19T02:01:10.359Z,17.83
2018-10-19T02:03:40.117Z,14.70
2018-10-19T02:06:09.561Z,12.60
2018-10-19T02:08:38.963Z,14.90
2018-10-19T02:11:08.387Z,15.30
2018-10-19T02:13:39.740Z,15.10
2018-10-19T02:16:09.247Z,17.93
2018-10-19T02:18:38.640Z,12.87
2018-10-19T02:21:09.260Z,16.13
2018-10-19T02:23:39.632Z,17.83
2018-10-19T02:26:09.106Z,18.77
2018-10-19T02:28:38.566Z,14.20
2018-10-19T02:31:07.947Z,18.17
2018-10-19T02:33:37.424Z,16.77
2018-10-19T02:36:06.996Z,12.77
2018-10-19T02:38:36.499Z,15.30
2018-10-19T02:41:06.413Z,13.33
2018-10-19T02:43:35.744Z,20.07
2018-10-19T02:46:05.398Z,15.10
2018-10-19T02:48:34.797Z,11.47
2018-10-19T02:51:12.103Z,16.43
2018-10-19T02:53:41.346Z,14.23
2018-10-19T02:56:12.002Z,12.93
2018-10-19T02:58:41.420Z,15.73
2018-10-19T03:01:10.775Z,15.90
2018-10-19T03:03:40.081Z,15.23
2018-10-19T03:06:09.482Z,15.33
2018-10-19T03:08:38.864Z,13.20
2018-10-19T03:11:08.639Z,14.33
2018-10-19T03:13:39.027Z,16.80
2018-10-19T03:16:16.130Z,15.33
2018-10-19T03:18:46.163Z,16.07
2018-10-19T03:21:19.211Z,15.00
2018-10-19T03:24:00.796Z,15.97
2018-10-19T03:26:37.762Z,12.10
2018-10-19T03:29:07.455Z,17.60
2018-10-19T03:31:38.761Z,12.27
2018-10-19T03:34:11.246Z,15.10
2018-10-19T03:36:41.287Z,16.63
2018-10-19T03:39:11.089Z,16.67
2018-10-19T03:41:41.757Z,17.47
2018-10-19T03:44:14.989Z,20.40
2018-10-19T03:46:44.650Z,18.83
2018-10-19T03:49:15.174Z,16.70
2018-10-19T03:51:51.586Z,19.17
2018-10-19T03:54:21.943Z,18.17
2018-10-19T03:56:51.579Z,16.57
2018-10-19T03:59:21.363Z,21.57
2018-10-19T04:01:54.396Z,17.30
2018-10-19T04:04:23.903Z,22.63
2018-10-19T04:06:54.161Z,22.23
2018-10-19T04:09:26.614Z,22.60
2018-10-19T04:12:04.483Z,21.37
2018-10-19T04:14:37.170Z,25.37
2018-10-19T04:17:10.553Z,21.87
2018-10-19T04:19:55.048Z,20.57
2018-10-19T04:22:36.002Z,23.37
2018-10-19T04:25:10.213Z,24.67
2018-10-19T04:27:49.334Z,25.93
2018-10-19T04:30:23.665Z,34.60
2018-10-19T04:33:03.524Z,42.00
2018-10-19T04:35:39.537Z,29.17
2018-10-19T04:38:17.111Z,28.40
2018-10-19T04:40:48.340Z,27.00
2018-10-19T04:43:33.270Z,26.83
2018-10-19T04:46:13.531Z,30.50
2018-10-19T04:48:53.847Z,34.93
2018-10-19T04:51:23.619Z,30.53
2018-10-19T04:53:53.085Z,31.37
2018-10-19T04:56:22.493Z,36.33
2018-10-19T04:58:51.869Z,33.63
2018-10-19T05:01:28.196Z,47.57
2018-10-19T05:03:57.763Z,25.83
2018-10-19T05:06:27.408Z,29.83
2018-10-19T05:09:01.331Z,28.10
2018-10-19T05:11:31.087Z,28.47
2018-10-19T05:14:02.688Z,29.97
2018-10-19T05:16:33.746Z,38.43
2018-10-19T05:19:04.079Z,30.00
2018-10-19T05:21:34.238Z,25.67
2018-10-19T05:24:05.789Z,33.20
2018-10-19T05:26:36.345Z,28.07
2018-10-19T05:29:06.506Z,23.17
2018-10-19T05:31:39.410Z,25.30
2018-10-19T05:34:16.337Z,27.00
2018-10-19T05:36:46.321Z,26.97
2018-10-19T05:39:16.175Z,33.03
2018-10-19T05:41:47.333Z,24.57
2018-10-19T05:44:17.104Z,27.03
2018-10-19T05:46:46.901Z,24.77
2018-10-19T05:49:17.577Z,30.90
2018-10-19T05:51:48.715Z,39.40
2018-10-19T05:54:20.039Z,24.87
2018-10-19T05:56:49.627Z,24.93
2018-10-19T05:59:25.912Z,46.97
2018-10-19T06:01:56.481Z,23.60
2018-10-19T06:04:27.141Z,41.10
2018-10-19T06:06:57.552Z,24.43
2018-10-19T06:09:27.468Z,22.20
2018-10-19T06:11:56.948Z,32.13
2018-10-19T06:14:28.918Z,28.40
2018-10-19T06:16:58.803Z,27.43
2018-10-19T06:19:28.207Z,23.70
2018-10-19T06:21:57.558Z,28.87
2018-10-19T06:24:27.015Z,23.43
2018-10-19T06:26:56.479Z,33.53
2018-10-19T06:29:25.904Z,28.63
2018-10-19T06:31:55.427Z,25.47
2018-10-19T06:34:24.830Z,40.53
2018-10-19T06:36:54.791Z,22.60
2018-10-19T06:39:24.193Z,19.63
2018-10-19T06:41:53.687Z,23.67
2018-10-19T06:44:23.180Z,19.67
2018-10-19T06:46:52.652Z,23.53
2018-10-19T06:49:23.657Z,25.63
2018-10-19T06:51:53.184Z,26.10
2018-10-19T06:54:35.914Z,25.30
2018-10-19T07:00:09.548Z,24.27
2018-10-19T07:02:57.762Z,20.30
2018-10-19T07:05:27.520Z,19.37
2018-10-19T07:07:56.922Z,19.17
2018-10-19T07:10:26.270Z,21.83
2018-10-19T07:13:00.965Z,23.80
2018-10-19T07:18:38.830Z,23.60
2018-10-19T07:21:09.174Z,21.03
2018-10-19T07:23:41.548Z,22.30
2018-10-19T07:26:11.697Z,18.40
2018-10-19T07:28:42.278Z,23.13
2018-10-19T07:31:12.505Z,21.00
2018-10-19T07:33:42.355Z,19.23
2018-10-19T07:36:14.604Z,24.57
2018-10-19T07:38:46.075Z,23.80
2018-10-19T07:41:15.778Z,18.27
2018-10-19T07:44:07.572Z,23.50
2018-10-19T07:46:38.598Z,20.30
2018-10-19T07:49:13.250Z,24.60
2018-10-19T07:51:44.196Z,26.03
2018-10-19T07:54:15.242Z,18.37
2018-10-19T07:57:03.424Z,20.70
2018-10-19T08:00:18.831Z,20.20
2018-10-19T08:02:51.746Z,21.57
2018-10-19T08:11:13.055Z,19.50
2018-10-19T08:13:43.760Z,18.20
2018-10-19T08:16:13.609Z,22.23
2018-10-19T08:18:42.968Z,14.57
2018-10-19T08:21:12.423Z,19.03
2018-10-19T08:23:41.925Z,19.37
2018-10-19T08:26:14.427Z,20.53
2018-10-19T08:28:44.847Z,16.97
2018-10-19T08:31:14.852Z,15.77
2018-10-19T08:33:45.607Z,12.07
2018-10-19T08:36:15.513Z,14.23
2018-10-19T08:38:46.243Z,19.80
2018-10-19T08:41:17.664Z,13.53
2018-10-19T08:43:49.174Z,13.47
2018-10-19T08:46:29.596Z,13.17
2018-10-19T08:48:59.709Z,17.50
2018-10-19T08:51:31.082Z,14.07
2018-10-19T08:54:02.007Z,16.23
2018-10-19T08:56:43.437Z,15.57
2018-10-19T09:12:50.644Z,14.40
2018-10-19T09:15:25.822Z,17.80
2018-10-19T09:17:56.581Z,12.57
2018-10-19T09:20:26.478Z,9.67
2018-10-19T09:22:56.206Z,14.50
2018-10-19T09:25:29.157Z,17.00
2018-10-19T09:28:06.269Z,14.60
2018-10-19T09:30:48.202Z,16.13
2018-10-19T09:35:07.113Z,14.37
2018-10-19T09:41:04.754Z,21.00
2018-10-19T09:43:34.666Z,19.33
2018-10-19T09:46:19.640Z,11.93
2018-10-19T09:49:33.275Z,12.13
2018-10-19T09:54:57.853Z,19.07
2018-10-19T09:57:32.980Z,11.50
2018-10-19T10:00:23.382Z,13.33
2018-10-19T10:16:51.917Z,13.27
2018-10-19T10:19:21.629Z,19.73
2018-10-19T10:21:52.468Z,12.20
2018-10-19T10:24:22.225Z,18.17
2018-10-19T10:26:52.098Z,18.10
2018-10-19T10:29:21.887Z,13.57
2018-10-19T10:31:51.875Z,17.50
2018-10-19T10:34:21.739Z,15.03
2018-10-19T10:36:51.543Z,15.13
2018-10-19T10:39:22.804Z,11.13
2018-10-19T10:42:07.837Z,11.30
2018-10-19T10:45:02.016Z,13.93
2018-10-19T10:47:51.300Z,11.17
2018-10-19T10:53:38.225Z,14.93
2018-10-19T10:56:22.254Z,17.47
2018-10-19T10:59:24.751Z,17.07
2018-10-19T11:02:14.127Z,13.33
2018-10-19T11:04:49.382Z,15.90
2018-10-19T11:07:32.140Z,18.37
2018-10-19T11:10:18.171Z,15.17
2018-10-19T11:12:56.227Z,11.67
2018-10-19T11:15:28.704Z,17.83
2018-10-19T11:17:58.231Z,16.67
2018-10-19T11:20:29.107Z,11.77
2018-10-19T11:23:00.325Z,12.80
2018-10-19T11:25:41.012Z,12.53
2018-10-19T11:30:59.691Z,16.07
2018-10-19T11:33:31.667Z,21.87
2018-10-19T11:36:01.372Z,11.97
2018-10-19T11:38:31.589Z,14.37
2018-10-19T11:41:05.075Z,17.77
2018-10-19T11:43:54.502Z,14.00
2018-10-19T11:46:25.286Z,16.83
2018-10-19T11:48:56.157Z,12.13
2018-10-19T11:51:28.281Z,16.27
2018-10-19T11:53:59.941Z,13.93
2018-10-19T11:56:30.345Z,14.87
2018-10-19T11:59:13.544Z,10.57
2018-10-19T12:01:43.683Z,8.80
2018-10-19T12:04:14.171Z,11.10
2018-10-19T12:06:52.254Z,10.00
2018-10-19T12:09:24.009Z,16.47
2018-10-19T12:11:53.926Z,14.33
2018-10-19T12:14:24.398Z,11.80
2018-10-19T12:16:55.035Z,13.23
2018-10-19T12:19:26.671Z,16.07
2018-10-19T12:21:56.260Z,14.17
2018-10-19T12:24:27.969Z,16.93
2018-10-19T12:26:58.299Z,11.73
2018-10-19T12:29:28.073Z,21.43
2018-10-19T12:31:57.709Z,65.23
2018-10-19T12:34:27.032Z,19.00
2018-10-19T12:36:57.178Z,14.37
2018-10-19T12:39:26.571Z,12.27
2018-10-19T12:41:55.976Z,13.57
2018-10-19T12:44:25.470Z,13.07
2018-10-19T12:47:11.584Z,13.17
2018-10-19T12:49:42.566Z,17.10
2018-10-19T12:52:12.321Z,8.93
2018-10-19T12:54:47.010Z,7.23
2018-10-19T12:57:16.908Z,10.90
2018-10-19T12:59:46.252Z,10.70
2018-10-19T13:02:15.894Z,11.47
2018-10-19T13:04:46.418Z,8.50
2018-10-19T13:07:16.379Z,10.77
2018-10-19T13:09:45.810Z,12.10
2018-10-19T13:12:15.356Z,15.57
2018-10-19T13:14:44.996Z,6.63
2018-10-19T13:17:14.454Z,8.73
2018-10-19T13:19:44.062Z,18.93
2018-10-19T13:22:13.604Z,10.93
2018-10-19T13:24:42.949Z,9.67
2018-10-19T13:27:12.524Z,9.90
2018-10-19T13:29:43.512Z,9.67
2018-10-19T13:32:13.026Z,8.87
2018-10-19T13:34:42.410Z,13.40
2018-10-19T13:37:11.859Z,12.60
2018-10-19T13:39:41.218Z,11.63
2018-10-19T13:42:10.548Z,9.27
2018-10-19T13:44:40.503Z,7.20
2018-10-19T13:47:09.809Z,9.73
2018-10-19T13:49:42.345Z,8.13
2018-10-19T13:52:24.253Z,9.47
2018-10-19T13:54:53.925Z,8.73
2018-10-19T13:57:23.602Z,9.80
2018-10-19T13:59:57.581Z,10.47
2018-10-19T14:02:29.095Z,12.83
2018-10-19T14:05:01.997Z,10.37
2018-10-19T14:07:46.464Z,12.00
2018-10-19T14:10:16.139Z,12.20
2018-10-19T14:12:45.885Z,7.63
2018-10-19T14:15:15.609Z,13.17
2018-10-19T14:17:45.164Z,13.43
2018-10-19T14:20:15.312Z,11.17
2018-10-19T14:22:44.998Z,11.30
2018-10-19T14:25:14.554Z,10.00
2018-10-19T14:27:44.797Z,14.70
2018-10-19T14:30:16.679Z,9.50
2018-10-19T14:32:46.076Z,8.80
2018-10-19T14:35:15.680Z,12.33
2018-10-19T14:37:46.246Z,6.60
2018-10-19T14:40:16.898Z,10.33
2018-10-19T14:42:46.540Z,7.57
2018-10-19T14:45:17.720Z,10.10
2018-10-19T14:47:48.178Z,13.00
2018-10-19T14:50:18.813Z,9.20
2018-10-19T14:52:49.385Z,9.47
2018-10-19T14:55:21.393Z,10.27
2018-10-19T14:57:50.889Z,10.57
2018-10-19T15:00:20.692Z,6.77
2018-10-19T15:02:50.181Z,11.43
2018-10-19T15:05:20.247Z,5.93
2018-10-19T15:07:49.652Z,11.87
2018-10-19T15:10:21.289Z,10.67
2018-10-19T15:12:52.735Z,7.40
2018-10-19T15:15:23.276Z,9.70
2018-10-19T15:17:53.528Z,13.00
2018-10-19T15:20:23.228Z,7.83
2018-10-19T15:22:52.549Z,6.87
2018-10-19T15:25:21.889Z,7.63
2018-10-19T15:27:51.292Z,9.57
2018-10-19T15:30:20.850Z,8.30
2018-10-19T15:32:50.366Z,7.17
2018-10-19T15:35:19.815Z,7.40
2018-10-19T15:37:49.579Z,8.47
2018-10-19T15:40:19.189Z,9.97
2018-10-19T15:42:55.347Z,9.80
2018-10-19T15:45:25.484Z,10.93
2018-10-19T15:47:56.321Z,11.47
2018-10-19T15:50:27.249Z,10.43
2018-10-19T15:52:57.480Z,8.57
2018-10-19T15:55:27.619Z,6.63
2018-10-19T15:58:01.554Z,7.97
2018-10-19T16:00:35.095Z,7.40
2018-10-19T16:03:06.050Z,16.23
2018-10-19T16:05:36.451Z,18.83
2018-10-19T16:08:06.642Z,13.57
2018-10-19T16:10:36.403Z,11.77
2018-10-19T16:13:07.345Z,11.13
2018-10-19T16:15:38.009Z,15.37
2018-10-19T16:18:07.953Z,14.80
2018-10-19T16:20:39.266Z,13.50
2018-10-19T16:23:12.045Z,12.43
2018-10-19T16:25:42.177Z,14.83
2018-10-19T16:28:45.270Z,9.40
2018-10-19T16:31:14.849Z,9.50
2018-10-19T16:33:45.190Z,9.90
2018-10-19T16:39:38.211Z,11.57
2018-10-19T16:45:08.555Z,8.33
2018-10-19T16:47:39.220Z,13.27
2018-10-19T16:50:17.675Z,8.80
2018-10-19T16:52:48.323Z,9.90
2018-10-19T16:55:18.085Z,12.10
2018-10-19T16:57:48.105Z,13.07
2018-10-19T17:00:19.561Z,11.83
2018-10-19T17:02:50.090Z,10.77
2018-10-19T17:05:19.842Z,10.70
2018-10-19T17:07:49.687Z,12.60
2018-10-19T17:10:19.557Z,14.97
2018-10-19T17:12:59.415Z,10.40
2018-10-19T17:15:34.436Z,10.67
2018-10-19T17:18:06.487Z,9.93
2018-10-19T17:20:37.599Z,8.43
2018-10-19T17:23:08.088Z,10.13
2018-10-19T17:25:38.988Z,11.03
2018-10-19T17:28:12.659Z,17.13
2018-10-19T17:31:47.305Z,13.97
2018-10-19T17:36:17.163Z,13.43
2018-10-19T17:43:53.979Z,14.03
2018-10-19T17:46:26.987Z,13.93
2018-10-19T17:49:09.956Z,15.10
2018-10-19T17:51:52.291Z,13.73
2018-10-19T17:54:29.069Z,10.17
2018-10-19T17:57:03.119Z,21.17
2018-10-19T17:59:41.479Z,19.70
2018-10-19T18:05:02.377Z,19.60
2018-10-19T18:07:33.337Z,25.67
2018-10-19T18:10:23.775Z,26.97
2018-10-19T18:13:09.585Z,47.63
2018-10-19T18:15:54.071Z,30.97
2018-10-19T18:18:43.852Z,26.93
2018-10-19T18:21:20.989Z,25.70
2018-10-19T18:25:41.290Z,19.80
2018-10-19T18:28:22.140Z,22.93
2018-10-19T18:30:59.553Z,21.57
2018-10-19T18:33:45.466Z,18.73
2018-10-19T18:36:29.401Z,19.07
2018-10-19T18:39:19.374Z,30.27
2018-10-19T18:41:53.049Z,31.53
2018-10-19T18:44:36.328Z,26.57
2018-10-19T18:50:17.131Z,21.07
2018-10-19T18:52:59.957Z,29.00
2018-10-19T18:55:30.079Z,23.20
2018-10-19T18:58:00.961Z,23.23
2018-10-19T19:00:31.911Z,25.23
2018-10-19T19:03:31.840Z,21.27
2018-10-19T19:06:23.753Z,27.93
2018-10-19T19:08:56.719Z,28.87
2018-10-19T19:14:12.212Z,19.60
2018-10-19T19:16:54.776Z,23.23
2018-10-19T19:19:38.598Z,23.63
2018-10-19T19:22:19.010Z,23.17
2018-10-19T19:24:54.976Z,36.27
2018-10-19T19:27:30.233Z,24.10
2018-10-19T19:30:08.898Z,24.87
2018-10-19T19:34:03.448Z,22.60
2018-10-19T19:36:39.539Z,28.37
2018-10-19T19:39:22.935Z,26.77
2018-10-19T19:42:08.397Z,25.00
2018-10-19T19:44:43.569Z,30.60
2018-10-19T19:47:23.977Z,26.93
2018-10-19T19:49:57.060Z,25.47
2018-10-19T19:52:30.290Z,32.87
2018-10-19T19:55:07.834Z,28.57
2018-10-19T19:58:01.909Z,31.93
2018-10-19T20:00:46.547Z,28.50
2018-10-19T20:21:20.367Z,57.63
2018-10-19T20:24:06.328Z,44.03
2018-10-19T20:26:53.352Z,29.13
2018-10-19T20:29:32.375Z,20.33
2018-10-19T20:32:21.190Z,18.20
2018-10-19T20:35:08.995Z,19.70
2018-10-19T20:40:44.890Z,24.03
2018-10-19T20:43:14.606Z,23.47
2018-10-19T20:45:46.339Z,23.50
2018-10-19T20:48:16.282Z,22.30
2018-10-19T20:50:48.741Z,24.63
2018-10-19T20:53:20.024Z,22.20
2018-10-19T20:56:55.289Z,25.33
2018-10-19T20:59:34.535Z,27.43
2018-10-19T21:02:09.052Z,26.80
2018-10-19T21:04:40.292Z,20.97
2018-10-19T21:07:10.215Z,19.33
2018-10-19T21:09:40.643Z,21.87
2018-10-19T21:12:16.460Z,18.67
2018-10-19T21:14:48.185Z,23.00
2018-10-19T21:17:20.358Z,22.40
2018-10-19T21:19:50.502Z,27.87
2018-10-19T21:22:21.918Z,23.03
2018-10-19T21:25:01.389Z,25.23
2018-10-19T21:27:37.697Z,26.30
2018-10-19T21:30:11.397Z,26.37
2018-10-19T21:46:15.945Z,39.40
2018-10-19T21:48:51.224Z,21.90
2018-10-19T21:51:24.280Z,24.17
2018-10-19T21:53:54.314Z,22.17
2018-10-19T21:56:26.795Z,25.13
2018-10-19T21:58:57.555Z,25.20
2018-10-19T22:01:27.197Z,25.63
2018-10-19T22:03:57.594Z,38.33
2018-10-19T22:06:27.923Z,23.27
2018-10-19T22:08:59.301Z,25.03
2018-10-19T22:11:31.326Z,20.27
2018-10-19T22:14:01.824Z,20.33
2018-10-19T22:16:35.316Z,21.37
2018-10-19T22:19:06.487Z,21.13
2018-10-19T22:21:36.987Z,23.10
2018-10-19T22:24:07.580Z,25.03
2018-10-19T22:26:37.800Z,23.83
2018-10-19T22:29:10.500Z,19.73
2018-10-19T22:31:40.129Z,20.17
2018-10-19T22:34:09.757Z,21.93
2018-10-19T22:36:45.810Z,23.57
2018-10-19T22:39:24.327Z,23.73
2018-10-19T22:42:08.697Z,21.43
2018-10-19T22:44:42.179Z,18.87
2018-10-19T22:47:42.691Z,21.57
2018-10-19T22:53:05.324Z,22.93
2018-10-19T22:55:42.980Z,20.77
2018-10-19T22:58:29.601Z,21.00
2018-10-19T23:01:01.820Z,22.57
2018-10-19T23:03:32.586Z,20.53
2018-10-19T23:06:03.743Z,23.17
2018-10-19T23:08:35.958Z,19.53
2018-10-19T23:11:21.763Z,20.80
2018-10-19T23:13:52.521Z,21.97
2018-10-19T23:16:24.143Z,22.83
2018-10-19T23:19:04.173Z,19.03
2018-10-19T23:21:40.724Z,19.13
2018-10-19T23:24:12.010Z,19.47
2018-10-19T23:27:00.191Z,15.93
2018-10-19T23:29:32.274Z,33.57
2018-10-19T23:32:03.878Z,17.43
2018-10-19T23:34:33.695Z,21.37
2018-10-19T23:37:03.388Z,16.53
2018-10-19T23:39:34.649Z,17.33
2018-10-19T23:42:07.396Z,28.20
2018-10-19T23:44:37.798Z,38.70
2018-10-19T23:47:07.606Z,23.33
2018-10-19T23:49:38.527Z,15.77
2018-10-19T23:52:10.489Z,19.77
2018-10-19T23:54:40.987Z,12.83
2018-10-19T23:57:12.429Z,19.10
2018-10-19T23:59:42.863Z,19.17
